createdAt,value
2019-04-14T00:00:44.829Z,10.27
2019-04-14T00:03:21.589Z,10.95
2019-04-14T00:05:53.928Z,10.97
2019-04-14T00:08:24.056Z,10.43
2019-04-14T00:10:53.115Z,9.53
2019-04-14T00:13:22.231Z,11.38
2019-04-14T00:15:52.330Z,11.08
2019-04-14T00:18:22.925Z,10.65
2019-04-14T00:20:53.150Z,10.43
2019-04-14T00:23:23.667Z,11.28
2019-04-14T00:25:52.706Z,11.33
2019-04-14T00:28:22.594Z,10.38
2019-04-14T00:30:53.325Z,10.53
2019-04-14T00:33:23.716Z,10.58
2019-04-14T00:36:02.248Z,10.23
2019-04-14T00:38:37.082Z,10.60
2019-04-14T00:41:13.725Z,11.17
2019-04-14T00:43:48.538Z,10.72
2019-04-14T00:46:25.430Z,11.40
2019-04-14T00:48:54.409Z,11.73
2019-04-14T00:51:24.402Z,11.33
2019-04-14T00:53:53.628Z,11.38
2019-04-14T00:56:23.678Z,11.07
2019-04-14T00:58:53.956Z,10.65
2019-04-14T01:01:24.268Z,10.50
2019-04-14T01:03:53.365Z,11.57
2019-04-14T01:06:22.974Z,11.15
2019-04-14T01:08:53.245Z,10.93
2019-04-14T01:11:22.595Z,10.97
2019-04-14T01:13:51.479Z,10.82
2019-04-14T01:16:23.362Z,10.77
2019-04-14T01:18:51.569Z,10.68
2019-04-14T01:21:21.701Z,11.03
2019-04-14T01:23:50.821Z,10.75
2019-04-14T01:26:20.356Z,11.07
2019-04-14T01:28:50.407Z,10.28
2019-04-14T01:31:20.547Z,11.87
2019-04-14T01:33:49.633Z,10.82
2019-04-14T01:36:19.190Z,11.35
2019-04-14T01:38:49.170Z,11.53
2019-04-14T01:41:19.248Z,11.13
2019-04-14T01:43:49.591Z,11.10
2019-04-14T01:46:24.668Z,11.07
2019-04-14T01:48:50.094Z,11.30
2019-04-14T01:51:30.909Z,10.60
2019-04-14T01:54:19.329Z,12.53
2019-04-14T01:57:11.014Z,11.40
2019-04-14T01:59:41.264Z,11.60
2019-04-14T02:02:11.978Z,11.97
2019-04-14T02:04:42.176Z,11.85
2019-04-14T02:07:12.100Z,12.07
2019-04-14T02:09:42.276Z,11.30
2019-04-14T02:12:12.748Z,12.43
2019-04-14T02:14:42.945Z,11.68
2019-04-14T02:17:13.133Z,11.33
2019-04-14T02:19:43.770Z,12.45
2019-04-14T02:22:13.825Z,11.63
2019-04-14T02:24:43.892Z,12.65
2019-04-14T02:27:14.232Z,12.70
2019-04-14T02:29:43.571Z,12.23
2019-04-14T02:35:16.701Z,12.45
2019-04-14T02:37:45.151Z,12.13
2019-04-14T02:42:44.002Z,12.83
2019-04-14T02:45:19.304Z,13.00
2019-04-14T02:48:03.236Z,12.35
2019-04-14T02:50:17.841Z,12.63
2019-04-14T02:53:01.779Z,13.53
2019-04-14T02:55:10.697Z,12.03
2019-04-14T02:57:47.877Z,12.63
2019-04-14T03:00:24.129Z,12.58
2019-04-14T03:02:44.533Z,12.63
2019-04-14T03:05:16.362Z,12.85
2019-04-14T03:13:03.587Z,13.33
2019-04-14T03:18:16.383Z,13.30
2019-04-14T03:20:48.209Z,12.68
2019-04-14T03:23:48.917Z,13.65
2019-04-14T03:26:04.894Z,13.25
2019-04-14T03:34:08.236Z,13.32
2019-04-14T03:38:45.150Z,12.88
2019-04-14T03:41:17.620Z,12.63
2019-04-14T03:43:54.349Z,12.70
2019-04-14T03:46:20.711Z,12.95
2019-04-14T03:51:18.875Z,13.17
2019-04-14T03:53:45.796Z,12.88
2019-04-14T03:56:29.149Z,13.57
2019-04-14T03:58:59.716Z,12.82
2019-04-14T04:01:30.130Z,11.63
2019-04-14T04:03:59.298Z,13.05
2019-04-14T04:06:29.256Z,10.93
2019-04-14T04:08:59.567Z,13.05
2019-04-14T04:11:28.629Z,13.70
2019-04-14T04:13:58.502Z,13.93
2019-04-14T04:16:44.062Z,12.63
2019-04-14T04:19:44.792Z,13.80
2019-04-14T04:22:48.149Z,13.40
2019-04-14T04:25:44.431Z,13.10
2019-04-14T04:28:32.053Z,11.03
2019-04-14T04:31:15.650Z,11.93
2019-04-14T04:34:07.579Z,11.55
2019-04-14T04:37:01.824Z,12.07
2019-04-14T04:39:37.982Z,12.53
2019-04-14T04:42:07.080Z,12.93
2019-04-14T04:44:36.142Z,13.03
2019-04-14T04:47:05.720Z,12.73
2019-04-14T04:49:35.866Z,12.13
2019-04-14T04:52:06.137Z,12.40
2019-04-14T04:54:36.415Z,13.05
2019-04-14T04:57:06.685Z,13.93
2019-04-14T04:59:36.705Z,14.00
2019-04-14T05:02:07.032Z,13.27
2019-04-14T05:04:37.322Z,13.08
2019-04-14T05:07:07.638Z,12.50
2019-04-14T05:09:56.179Z,13.58
2019-04-14T05:12:36.890Z,13.07
2019-04-14T05:15:19.089Z,12.35
2019-04-14T05:17:48.003Z,13.43
2019-04-14T05:20:18.079Z,13.70
2019-04-14T05:22:48.381Z,12.82
2019-04-14T05:25:18.882Z,12.93
2019-04-14T05:27:49.379Z,12.85
2019-04-14T05:30:19.693Z,11.90
2019-04-14T05:32:50.118Z,12.95
2019-04-14T05:35:20.355Z,13.05
2019-04-14T05:37:50.534Z,12.93
2019-04-14T05:40:20.961Z,12.00
2019-04-14T05:42:50.094Z,12.00
2019-04-14T05:45:19.847Z,12.03
2019-04-14T05:47:50.104Z,13.05
2019-04-14T05:50:20.298Z,11.57
2019-04-14T05:52:49.386Z,12.28
2019-04-14T05:55:18.342Z,13.35
2019-04-14T05:57:48.120Z,13.22
2019-04-14T06:00:19.036Z,12.70
2019-04-14T06:02:48.495Z,13.40
2019-04-14T06:05:18.870Z,11.45
2019-04-14T06:07:47.859Z,11.97
2019-04-14T06:10:17.167Z,12.40
2019-04-14T06:12:46.037Z,13.05
2019-04-14T06:15:15.265Z,12.28
2019-04-14T06:17:44.283Z,12.65
2019-04-14T06:20:13.307Z,12.15
2019-04-14T06:22:43.187Z,12.73
2019-04-14T06:25:12.193Z,12.55
2019-04-14T06:27:41.461Z,12.65
2019-04-14T06:30:31.594Z,12.35
2019-04-14T06:33:03.784Z,12.45
2019-04-14T06:35:41.275Z,12.53
2019-04-14T06:38:13.431Z,12.25
2019-04-14T06:40:47.499Z,12.90
2019-04-14T06:43:16.469Z,12.73
2019-04-14T06:45:45.286Z,12.67
2019-04-14T06:48:14.231Z,12.63
2019-04-14T06:50:46.245Z,11.68
2019-04-14T06:53:14.082Z,11.55
2019-04-14T06:55:43.070Z,11.60
2019-04-14T06:58:11.868Z,10.63
2019-04-14T07:00:40.731Z,11.23
2019-04-14T07:03:09.761Z,11.10
2019-04-14T07:05:38.716Z,11.97
2019-04-14T07:08:07.874Z,11.22
2019-04-14T07:10:36.862Z,11.60
2019-04-14T07:13:05.782Z,10.93
2019-04-14T07:15:34.752Z,12.07
2019-04-14T07:18:03.918Z,12.18
2019-04-14T07:20:32.821Z,10.13
2019-04-14T07:23:01.697Z,10.20
2019-04-14T07:25:30.706Z,11.10
2019-04-14T07:27:59.537Z,10.88
2019-04-14T07:30:51.999Z,10.23
2019-04-14T07:33:42.842Z,10.20
2019-04-14T07:36:22.527Z,9.13
2019-04-14T07:39:19.383Z,10.85
2019-04-14T07:41:54.114Z,10.73
2019-04-14T07:44:51.571Z,10.03
2019-04-14T07:47:27.802Z,9.88
2019-04-14T07:50:19.482Z,10.08
2019-04-14T07:53:06.231Z,9.90
2019-04-14T07:55:45.295Z,9.50
2019-04-14T07:58:24.113Z,9.78
2019-04-14T08:01:07.051Z,10.03
2019-04-14T08:03:56.306Z,9.75
2019-04-14T08:06:25.270Z,9.80
2019-04-14T08:08:54.127Z,8.70
2019-04-14T08:11:23.162Z,9.57
2019-04-14T08:13:52.215Z,10.82
2019-04-14T08:16:21.224Z,9.47
2019-04-14T08:18:50.484Z,10.00
2019-04-14T08:21:19.536Z,9.88
2019-04-14T08:23:48.449Z,9.53
2019-04-14T08:26:17.355Z,11.90
2019-04-14T08:28:46.402Z,9.98
2019-04-14T08:31:15.425Z,9.47
2019-04-14T08:33:44.234Z,10.78
2019-04-14T08:36:13.262Z,8.57
2019-04-14T08:38:42.357Z,8.55
2019-04-14T08:41:11.255Z,9.07
2019-04-14T08:43:48.954Z,9.65
2019-04-14T08:46:24.644Z,8.40
2019-04-14T08:49:30.708Z,9.10
2019-04-14T08:52:14.338Z,8.50
2019-04-14T08:55:17.824Z,7.60
2019-04-14T08:58:11.947Z,8.45
2019-04-14T09:00:53.635Z,8.73
2019-04-14T09:03:40.409Z,9.80
2019-04-14T09:06:16.214Z,8.40
2019-04-14T09:08:48.342Z,8.10
2019-04-14T09:11:18.682Z,7.37
2019-04-14T09:13:47.623Z,9.48
2019-04-14T09:16:16.586Z,9.17
2019-04-14T09:18:45.529Z,8.23
2019-04-14T09:21:14.565Z,9.33
2019-04-14T09:23:43.507Z,9.10
2019-04-14T09:26:12.783Z,9.33
2019-04-14T09:28:41.832Z,9.77
2019-04-14T09:31:10.855Z,7.93
2019-04-14T09:33:39.708Z,7.70
2019-04-14T09:36:09.184Z,7.97
2019-04-14T09:38:38.255Z,7.50
2019-04-14T09:41:07.182Z,8.60
2019-04-14T09:43:36.207Z,8.03
2019-04-14T09:46:05.070Z,8.63
2019-04-14T09:48:34.019Z,8.23
2019-04-14T09:51:05.148Z,8.00
2019-04-14T09:53:33.984Z,8.53
2019-04-14T09:56:03.111Z,8.87
2019-04-14T09:58:32.157Z,8.37
2019-04-14T10:01:01.855Z,7.00
2019-04-14T10:03:30.922Z,8.20
2019-04-14T10:05:59.907Z,7.03
2019-04-14T10:08:28.914Z,7.90
2019-04-14T10:10:58.202Z,7.30
2019-04-14T10:13:27.028Z,7.63
2019-04-14T10:15:56.439Z,8.43
2019-04-14T10:18:25.719Z,8.27
2019-04-14T10:20:54.887Z,8.27
2019-04-14T10:23:23.822Z,7.70
2019-04-14T10:25:52.871Z,6.83
2019-04-14T10:28:21.878Z,6.90
2019-04-14T10:30:50.800Z,7.33
2019-04-14T10:33:20.010Z,9.63
2019-04-14T10:35:49.335Z,6.90
2019-04-14T10:38:18.561Z,7.03
2019-04-14T10:40:47.747Z,7.33
2019-04-14T10:43:16.806Z,7.93
2019-04-14T10:45:45.818Z,7.57
2019-04-14T10:48:14.933Z,7.00
2019-04-14T10:50:44.507Z,9.00
2019-04-14T10:53:13.859Z,7.50
2019-04-14T10:55:42.779Z,7.07
2019-04-14T10:58:12.002Z,6.13
2019-04-14T11:00:40.994Z,6.50
2019-04-14T11:03:10.199Z,6.90
2019-04-14T11:05:53.385Z,8.63
2019-04-14T11:08:22.680Z,8.03
2019-04-14T11:10:51.843Z,6.43
2019-04-14T11:13:20.770Z,7.10
2019-04-14T11:15:49.811Z,8.23
2019-04-14T11:18:18.801Z,7.07
2019-04-14T11:20:47.870Z,7.20
2019-04-14T11:23:17.024Z,6.17
2019-04-14T11:25:45.874Z,6.70
2019-04-14T11:28:15.124Z,7.17
2019-04-14T11:30:44.521Z,7.90
2019-04-14T11:33:38.491Z,6.53
2019-04-14T11:36:25.590Z,6.60
2019-04-14T11:39:19.807Z,6.57
2019-04-14T11:41:48.635Z,6.30
2019-04-14T11:44:17.590Z,7.77
2019-04-14T11:46:46.839Z,7.57
2019-04-14T11:49:15.823Z,6.97
2019-04-14T11:51:54.640Z,7.30
2019-04-14T11:54:16.043Z,6.33
2019-04-14T11:56:45.330Z,6.87
2019-04-14T11:59:14.378Z,5.87
2019-04-14T12:01:52.111Z,6.20
2019-04-14T12:04:43.151Z,7.20
2019-04-14T12:07:33.674Z,6.03
2019-04-14T12:10:05.624Z,5.77
2019-04-14T12:12:34.614Z,6.20
2019-04-14T12:15:03.838Z,6.00
2019-04-14T12:17:32.878Z,5.57
2019-04-14T12:20:06.171Z,5.87
2019-04-14T12:22:35.142Z,6.33
2019-04-14T12:25:04.351Z,7.20
2019-04-14T12:27:33.290Z,5.73
2019-04-14T12:30:03.452Z,6.83
2019-04-14T12:32:32.475Z,6.13
2019-04-14T12:35:01.416Z,6.07
2019-04-14T12:37:30.806Z,6.43
2019-04-14T12:39:59.730Z,5.67
2019-04-14T12:42:47.026Z,5.63
2019-04-14T12:45:47.373Z,5.67
2019-04-14T12:48:53.536Z,5.80
2019-04-14T12:51:32.959Z,5.67
2019-04-14T12:54:01.894Z,5.73
2019-04-14T12:56:30.906Z,6.73
2019-04-14T12:59:18.897Z,5.90
2019-04-14T13:01:58.097Z,6.20
2019-04-14T13:04:27.060Z,5.63
2019-04-14T13:06:55.951Z,5.60
2019-04-14T13:09:25.183Z,5.90
2019-04-14T13:11:54.316Z,5.83
2019-04-14T13:14:23.715Z,5.70
2019-04-14T13:16:52.652Z,7.33
2019-04-14T13:19:22.224Z,6.73
2019-04-14T13:21:51.190Z,6.27
2019-04-14T13:24:20.151Z,5.90
2019-04-14T13:26:49.134Z,5.90
2019-04-14T13:29:18.155Z,7.23
2019-04-14T13:31:47.576Z,6.57
2019-04-14T13:34:16.543Z,5.73
2019-04-14T13:36:45.622Z,6.33
2019-04-14T13:39:14.580Z,6.07
2019-04-14T13:41:43.634Z,6.23
2019-04-14T13:44:13.201Z,5.90
2019-04-14T13:46:42.290Z,5.83
2019-04-14T13:49:11.098Z,6.33
2019-04-14T13:51:40.133Z,6.67
2019-04-14T13:54:09.070Z,6.23
2019-04-14T13:56:38.095Z,6.63
2019-04-14T13:59:07.062Z,6.30
2019-04-14T14:01:36.007Z,6.90
2019-04-14T14:04:05.114Z,6.67
2019-04-14T14:06:34.095Z,6.47
2019-04-14T14:09:03.388Z,7.40
2019-04-14T14:11:37.902Z,7.93
2019-04-14T14:14:13.457Z,7.07
2019-04-14T14:16:57.635Z,6.73
2019-04-14T14:19:36.814Z,5.77
2019-04-14T14:22:15.618Z,5.33
2019-04-14T14:25:12.814Z,5.83
2019-04-14T14:27:42.114Z,6.30
2019-04-14T14:30:13.095Z,8.40
2019-04-14T14:32:42.259Z,7.00
2019-04-14T14:35:11.569Z,6.03
2019-04-14T14:37:40.535Z,6.00
2019-04-14T14:40:09.968Z,6.37
2019-04-14T14:42:38.947Z,6.90
2019-04-14T14:45:19.634Z,6.57
2019-04-14T14:47:55.891Z,7.40
2019-04-14T14:50:43.815Z,6.67
2019-04-14T14:53:12.719Z,7.03
2019-04-14T14:55:41.773Z,7.50
2019-04-14T14:58:10.596Z,7.60
2019-04-14T15:00:39.578Z,6.53
2019-04-14T15:03:08.774Z,7.47
2019-04-14T15:05:38.450Z,7.80
2019-04-14T15:08:07.359Z,7.60
2019-04-14T15:10:36.413Z,6.93
2019-04-14T15:13:05.458Z,7.37
2019-04-14T15:15:34.825Z,6.50
2019-04-14T15:18:03.875Z,7.03
2019-04-14T15:20:32.949Z,6.57
2019-04-14T15:23:02.395Z,6.87
2019-04-14T15:25:31.378Z,7.27
2019-04-14T15:28:00.210Z,7.03
2019-04-14T15:30:29.226Z,6.87
2019-04-14T15:32:58.118Z,7.40
2019-04-14T15:35:27.135Z,6.53
2019-04-14T15:37:56.109Z,6.97
2019-04-14T15:40:25.488Z,7.40
2019-04-14T15:42:54.472Z,7.27
2019-04-14T15:45:23.765Z,6.97
2019-04-14T15:47:52.839Z,7.47
2019-04-14T15:50:21.729Z,6.30
2019-04-14T15:52:50.758Z,7.43
2019-04-14T15:55:19.862Z,6.73
2019-04-14T15:57:58.130Z,5.90
2019-04-14T16:00:40.127Z,6.23
2019-04-14T16:03:23.415Z,6.80
2019-04-14T16:05:59.738Z,6.33
2019-04-14T16:08:32.343Z,7.07
2019-04-14T16:11:29.802Z,7.77
2019-04-14T16:14:15.754Z,6.53
2019-04-14T16:17:02.997Z,7.10
2019-04-14T16:19:35.648Z,7.40
2019-04-14T16:22:04.622Z,6.07
2019-04-14T16:24:33.777Z,6.70
2019-04-14T16:27:31.423Z,6.87
2019-04-14T16:30:10.088Z,8.33
2019-04-14T16:32:57.843Z,6.57
2019-04-14T16:35:28.514Z,6.50
2019-04-14T16:37:57.486Z,6.60
2019-04-14T16:40:26.475Z,6.77
2019-04-14T16:42:55.447Z,6.83
2019-04-14T16:45:24.809Z,6.50
2019-04-14T16:47:53.866Z,6.70
2019-04-14T16:50:23.083Z,7.27
2019-04-14T16:52:59.517Z,6.37
2019-04-14T16:56:02.901Z,6.47
2019-04-14T16:59:00.324Z,6.17
2019-04-14T17:01:35.489Z,7.17
2019-04-14T17:04:04.550Z,6.53
2019-04-14T17:06:33.370Z,6.12
2019-04-14T17:09:02.494Z,6.57
2019-04-14T17:11:31.359Z,6.43
2019-04-14T17:14:05.474Z,6.45
2019-04-14T17:16:48.381Z,6.30
2019-04-14T17:19:28.402Z,6.60
2019-04-14T17:22:07.454Z,7.07
2019-04-14T17:24:56.007Z,7.40
2019-04-14T17:27:32.043Z,6.47
2019-04-14T17:30:20.390Z,6.42
2019-04-14T17:33:07.593Z,6.92
2019-04-14T17:35:50.841Z,7.20
2019-04-14T17:38:27.631Z,6.47
2019-04-14T17:41:18.051Z,6.83
2019-04-14T17:43:51.885Z,6.00
2019-04-14T17:46:38.418Z,6.10
2019-04-14T17:49:35.748Z,6.42
2019-04-14T17:52:22.576Z,5.67
2019-04-14T17:55:09.428Z,5.75
2019-04-14T17:57:56.348Z,6.03
2019-04-14T18:00:47.463Z,5.62
2019-04-14T18:03:41.554Z,5.72
2019-04-14T18:06:17.831Z,6.17
2019-04-14T18:09:08.955Z,6.35
2019-04-14T18:11:42.611Z,5.70
2019-04-14T18:14:31.135Z,5.75
2019-04-14T18:17:25.490Z,5.10
2019-04-14T18:20:01.980Z,5.55
2019-04-14T18:22:30.957Z,5.30
2019-04-14T18:24:59.912Z,6.37
2019-04-14T18:27:30.291Z,6.03
2019-04-14T18:30:17.710Z,6.03
2019-04-14T18:32:57.418Z,6.08
2019-04-14T18:35:34.253Z,6.20
2019-04-14T18:38:31.510Z,6.40
2019-04-14T18:41:09.919Z,5.40
2019-04-14T18:43:47.192Z,6.35
2019-04-14T18:46:35.197Z,6.77
2019-04-14T18:49:10.325Z,6.42
2019-04-14T18:51:55.041Z,6.37
2019-04-14T18:54:32.414Z,6.55
2019-04-14T18:57:26.215Z,6.33
2019-04-14T19:00:15.646Z,6.42
2019-04-14T19:02:44.454Z,5.78
2019-04-14T19:05:13.394Z,6.20
2019-04-14T19:07:42.824Z,6.10
2019-04-14T19:10:11.926Z,6.00
2019-04-14T19:12:52.586Z,6.03
2019-04-14T19:15:35.225Z,6.10
2019-04-14T19:18:29.459Z,5.92
2019-04-14T19:21:07.331Z,5.80
2019-04-14T19:23:36.475Z,6.28
2019-04-14T19:26:05.846Z,6.30
2019-04-14T19:28:34.807Z,6.37
2019-04-14T19:31:03.831Z,5.80
2019-04-14T19:33:32.711Z,6.12
2019-04-14T19:36:01.657Z,6.30
2019-04-14T19:38:30.587Z,5.80
2019-04-14T19:40:59.566Z,6.27
2019-04-14T19:43:28.780Z,6.25
2019-04-14T19:45:57.651Z,5.03
2019-04-14T19:48:26.567Z,5.25
2019-04-14T19:50:55.642Z,5.03
2019-04-14T19:53:24.666Z,5.12
2019-04-14T19:55:54.076Z,5.90
2019-04-14T19:58:23.030Z,5.10
2019-04-14T20:00:52.014Z,5.50
2019-04-14T20:03:21.114Z,4.97
2019-04-14T20:05:49.930Z,5.23
2019-04-14T20:08:18.874Z,5.10
2019-04-14T20:10:47.784Z,5.23
2019-04-14T20:13:16.801Z,5.10
2019-04-14T20:16:07.990Z,5.03
2019-04-14T20:18:55.969Z,5.55
2019-04-14T20:21:44.204Z,4.77
2019-04-14T20:24:24.595Z,5.00
2019-04-14T20:26:57.546Z,4.57
2019-04-14T20:29:29.614Z,4.97
2019-04-14T20:32:04.702Z,5.00
2019-04-14T20:34:33.895Z,4.60
2019-04-14T20:37:02.863Z,4.67
2019-04-14T20:39:32.465Z,4.40
2019-04-14T20:42:01.358Z,4.72
2019-04-14T20:44:30.702Z,4.78
2019-04-14T20:46:59.670Z,4.50
2019-04-14T20:49:28.592Z,4.45
2019-04-14T20:51:57.884Z,4.90
2019-04-14T20:54:26.718Z,4.17
2019-04-14T20:56:55.974Z,4.27
2019-04-14T20:59:24.809Z,4.47
2019-04-14T21:02:07.718Z,4.07
2019-04-14T21:04:48.110Z,3.60
2019-04-14T21:07:39.675Z,4.60
2019-04-14T21:10:39.761Z,3.52
2019-04-14T21:13:17.306Z,3.58
2019-04-14T21:15:49.621Z,3.70
2019-04-14T21:18:40.831Z,3.70
2019-04-14T21:21:29.258Z,3.17
2019-04-14T21:24:03.222Z,3.70
2019-04-14T21:26:50.099Z,3.43
2019-04-14T21:29:36.994Z,3.87
2019-04-14T21:32:18.134Z,3.47
2019-04-14T21:35:08.870Z,3.60
2019-04-14T21:37:56.838Z,3.85
2019-04-14T21:40:46.608Z,3.52
2019-04-14T21:43:15.700Z,3.60
2019-04-14T21:45:44.526Z,4.17
2019-04-14T21:48:13.441Z,3.80
2019-04-14T21:50:42.466Z,4.33
2019-04-14T21:53:11.367Z,3.92
2019-04-14T21:55:40.406Z,3.87
2019-04-14T21:58:18.266Z,3.65
2019-04-14T22:01:43.346Z,3.90
2019-04-14T22:04:46.741Z,3.90
2019-04-14T22:07:40.614Z,4.07
2019-04-14T22:10:29.014Z,3.80
2019-04-14T22:12:58.150Z,4.10
2019-04-14T22:15:27.254Z,3.87
2019-04-14T22:17:56.158Z,4.33
2019-04-14T22:20:24.999Z,3.52
2019-04-14T22:22:53.923Z,3.98
2019-04-14T22:25:22.752Z,4.10
2019-04-14T22:27:51.604Z,3.47
2019-04-14T22:30:20.598Z,3.35
2019-04-14T22:32:49.579Z,3.30
2019-04-14T22:35:18.435Z,3.22
2019-04-14T22:37:47.719Z,3.30
2019-04-14T22:40:16.851Z,3.15
2019-04-14T22:42:45.969Z,3.08
2019-04-14T22:45:15.161Z,3.40
2019-04-14T22:47:44.071Z,3.25
2019-04-14T22:50:13.147Z,2.87
2019-04-14T22:52:42.045Z,3.45
2019-04-14T22:55:11.190Z,2.83
2019-04-14T22:57:40.254Z,2.60
2019-04-14T23:00:11.807Z,2.40
2019-04-14T23:02:53.844Z,2.72
2019-04-14T23:05:46.305Z,2.90
2019-04-14T23:08:32.780Z,2.62
2019-04-14T23:11:09.773Z,2.43
2019-04-14T23:13:44.871Z,2.60
2019-04-14T23:16:22.771Z,2.60
2019-04-14T23:19:00.158Z,2.70
2019-04-14T23:21:35.319Z,2.60
2019-04-14T23:24:13.604Z,2.55
2019-04-14T23:26:52.223Z,2.53
2019-04-14T23:29:13.524Z,2.70
2019-04-14T23:31:42.590Z,2.67
2019-04-14T23:34:11.584Z,2.65
2019-04-14T23:36:40.567Z,3.10
2019-04-14T23:39:11.969Z,2.67
2019-04-14T23:41:40.974Z,2.50
2019-04-14T23:44:10.016Z,2.70
2019-04-14T23:46:39.142Z,2.53
2019-04-14T23:49:08.007Z,2.50
2019-04-14T23:51:37.128Z,2.23
2019-04-14T23:54:06.158Z,2.72
2019-04-14T23:56:35.219Z,2.70
2019-04-14T23:59:04.754Z,2.60
